North Spring Valley, Nevada Weather observations

Data are for 10 minute period ending at time listed.
 Day   Time   Solar   Ave.   Ave.  Ave.  Vector  Max.   Baro.   Total    
  of    of     Rad.   Air    Rel.  Wind   Wind   Wind  Press.  Precip.   
Year   Day            Temp.  Hum.  Speed  Dir.   Gust                    
2017   (PST)  Kw/m2    F      %     mph   deg.    mph    mb.     in.     
-------------------------------------------------------------------------
 118   16:20   0.34   41.7    44   22.7   350    33.4   825.3    0.00 
 118   16:30   0.18   41.2    42   17.7   353    27.8   825.4    0.00 
 118   16:40   0.22   42.2    39   14.1   355    20.5   825.4    0.00 
 118   16:50   0.18   42.4    36   15.0   357    21.1   825.4    0.00 
 118   17:00   0.20   41.7    37   14.2   359    24.0   825.6    0.00 
 118   17:10   0.28   42.0    43   17.3   351    24.7   825.6    0.00 
 118   17:20   0.13   41.3    42   15.3   341    21.6   825.6    0.00 
 118   17:30   0.10   41.2    39   12.7   338    18.5   825.6    0.00 
 118   17:40   0.07   41.0    39   12.1   342    19.4   825.6    0.00 
 118   17:50   0.05   40.8    38   10.5   345    15.6   825.6    0.00 
 118   18:00   0.06   40.7    40   10.4     6    15.3   825.8    0.00 
 118   18:10   0.06   39.4    51   10.2    30    15.7   825.9    0.00 
 118   18:20   0.03   38.8    56   14.1    38    22.3   826.1    0.00 
 118   18:30   0.01   37.5    57    9.6    37    22.3   826.1    0.00 
 118   18:40   0.00   37.0    55    6.3     4    12.4   826.2    0.00 
 118   18:50   0.00   36.2    54    6.0   340    13.0   826.2    0.00 
 118   19:00   0.00   37.8    50   14.2   354    25.6   826.3    0.00 
 118   19:10   0.00   37.4    56   12.3   349    17.3   826.3    0.00 
 118   19:20   0.00   37.3    56    9.5   334    14.1   826.5    0.00 
 118   19:30   0.00   37.2    56    7.9   330    11.4   826.6    0.00 
 118   19:40   0.00   37.4    54    8.0   329    13.6   826.7    0.00 
 118   19:50   0.00   37.8    51    8.2   335    12.6   826.8    0.00 
 118   20:00   0.00   37.1    52    8.0   328    11.5   826.9    0.00 
 118   20:10   0.00   37.0    51    8.1   326    11.2   826.9    0.00 
 118   20:20   0.00   37.2    49    7.6   326    11.3   827.0    0.00 
 118   20:30   0.00   36.5    51    7.8   312    10.4   827.1    0.00 
 118   20:40   0.00   37.2    48    8.4   317    12.7   827.1    0.00 
 118   20:50   0.00   37.6    46    9.8   324    15.2   827.2    0.00 
 118   21:00   0.00   37.6    46    9.0   321    13.9   827.3    0.00 
 118   21:10   0.00   37.7    46    9.3   316    14.1   827.3    0.00 
 118   21:20   0.00   38.0    45    8.2   322    12.4   827.4    0.00 
 118   21:30   0.00   37.3    47    5.9   325     8.4   827.4    0.00 
 118   21:40   0.00   37.2    48    6.2   330     8.5   827.4    0.00 
 118   21:50   0.00   37.8    45    8.4   332    13.6   827.3    0.00 
 118   22:00   0.00   38.5    44    8.8   335    12.5   827.4    0.00 
 118   22:10   0.00   38.6    44    8.3   333    13.2   827.4    0.00 
 118   22:20   0.00   39.0    43    8.1   334    12.2   827.5    0.00 
 118   22:30   0.00   38.8    43    8.3   342    12.3   827.5    0.00 
 118   22:40   0.00   38.3    44    8.3   347    12.3   827.6    0.00 
 118   22:50   0.00   37.7    47    8.1   342    12.6   827.8    0.00 
 118   23:00   0.00   37.0    49    8.3   333    11.7   827.9    0.00 
 118   23:10   0.00   36.6    49    8.3   337    12.5   827.9    0.00 
 118   23:20   0.00   36.6    50    7.3   333    12.0   827.9    0.00 
 118   23:30   0.00   37.5    47    8.6   349    11.6   828.0    0.00 
 118   23:40   0.00   37.2    48    8.2   352    12.3   828.0    0.00 
 118   23:50   0.00   36.4    51    6.7   355     9.8   828.0    0.00 
 119    0:00   0.00   35.9    52    6.6   355    10.8   828.0    0.00 
 119    0:10   0.00   35.9    52    6.7   352    10.6   828.0    0.00 
 119    0:20   0.00   36.4    50    8.3   347    13.2   828.1    0.00 
 119    0:30   0.00   36.5    49    8.7   349    12.9   828.2    0.00 
 119    0:40   0.00   36.2    51    6.9   345     9.6   828.2    0.00 
 119    0:50   0.00   36.3    51    7.6   348    10.5   828.2    0.00 
 119    1:00   0.00   36.1    51    6.5   350     9.3   828.2    0.00 
 119    1:10   0.00   35.9    52    5.9   343     8.4   828.1    0.00 
 119    1:20   0.00   35.5    52    6.4   341     9.4   828.1    0.00 
 119    1:30   0.00   35.0    53    6.8   323     9.3   828.2    0.00 
 119    1:40   0.00   35.1    53    6.9   327    10.7   828.1    0.00 
 119    1:50   0.00   35.0    52    5.8   340     8.2   828.1    0.00 
 119    2:00   0.00   34.0    54    5.2   344     6.9   828.1    0.00 
 119    2:10   0.00   33.3    55    5.7   344     8.6   828.2    0.00 
 119    2:20   0.00   32.1    58    5.6   334    10.1   828.2    0.00 
 119    2:30   0.00   32.9    56    6.2   331    11.0   828.2    0.00 
 119    2:40   0.00   33.0    56    5.8   332     9.1   828.3    0.00 
 119    2:50   0.00   32.8    56    5.3   346     7.2   828.3    0.00 
 119    3:00   0.00   32.8    56    6.0   345     8.3   828.3    0.00 
 119    3:10   0.00   33.4    54    8.5   338    16.1   828.4    0.00 
 119    3:20   0.00   34.3    52    9.9   333    15.0   828.5    0.00 
 119    3:30   0.00   34.5    52   10.3   323    15.9   828.6    0.00 
 119    3:40   0.00   34.8    51    8.9   330    13.4   828.6    0.00 
 119    3:50   0.00   34.2    52    8.1   336    11.4   828.7    0.00 
 119    4:00   0.00   33.6    54    7.3   340    12.7   828.8    0.00 
 119    4:10   0.00   34.3    53    8.5   339    14.7   828.9    0.00 
 119    4:20   0.00   34.4    53    8.2   328    11.8   828.9    0.00 
 119    4:30   0.00   34.3    54    7.9   336    11.2   829.1    0.00 
 119    4:40   0.00   34.4    54    7.4   331    12.5   829.2    0.00 
 119    4:50   0.01   34.1    55    6.8   337    10.3   829.3    0.00 
 119    5:00   0.02   34.1    54    7.7   340    10.7   829.4    0.00 
 119    5:10   0.03   34.2    54    8.7   331    13.6   829.5    0.00 
 119    5:20   0.02   34.3    54    9.4   328    12.9   829.6    0.00 
 119    5:30   0.04   34.7    54    9.2   329    13.9   829.7    0.00 
 119    5:40   0.04   34.5    54    7.8   344    11.5   829.8    0.00 
 119    5:50   0.07   34.5    55    6.8   353     9.3   830.0    0.00 
 119    6:00   0.05   34.2    56    7.3     9    11.5   830.2    0.00 
 119    6:10   0.14   34.9    55    7.4   355    10.3   830.3    0.00 
 119    6:20   0.30   37.3    51    8.2   328    12.4   830.4    0.00 
 119    6:30   0.31   38.7    49    7.9   334    11.7   830.5    0.00 
 119    6:40   0.35   39.5    48    8.2   339    14.0   830.6    0.00 
 119    6:50   0.39   40.1    48    7.5   347    12.9   830.8    0.00 
 119    7:00   0.44   41.3    47    9.2     6    13.4   830.9    0.00 
 119    7:10   0.37   42.1    46    9.5    10    13.2   831.2    0.00 
 119    7:20   0.54   42.6    46    8.2    13    12.9   831.3    0.00 
 119    7:30   0.55   43.0    45    8.0     1    13.9   831.4    0.00 
 119    7:40   0.60   43.2    46    7.2    20    12.7   831.4    0.00 
 119    7:50   0.71   44.0    45    6.9    36    12.9   831.5    0.00 
 119    8:00   0.70   44.4    45    7.7     6    15.4   831.5    0.00 
 119    8:10   0.79   44.8    45    9.5    23    17.6   831.5    0.00 
 119    8:20   0.92   46.1    45    8.5    32    16.1   831.6    0.00 
 119    8:30   0.93   46.5    44    8.0    27    15.3   831.7    0.00 
 119    8:40   0.93   46.6    44    9.1    30    17.5   831.7    0.00 
 119    8:50   0.96   47.4    42   11.0    26    18.7   831.6    0.00 
 119    9:00   0.96   48.2    41   13.2    27    20.2   831.7    0.00 
 119    9:10   0.71   47.4    41   10.5    18    15.9   831.8    0.00 
 119    9:20   0.71   47.5    41   12.0    24    24.7   831.8    0.00 
 119    9:30   0.98   48.2    41   14.1    48    21.7   831.7    0.00 
 119    9:40   0.70   48.2    40   11.7    35    20.5   831.8    0.00 
 119    9:50   0.54   47.3    41   10.3    26    15.8   831.9    0.00 
 119   10:00   0.35   47.2    39   10.2    27    19.2   831.9    0.00 
 119   10:10   0.47   46.8    39    9.1    24    16.1   832.0    0.00 
 119   10:20   0.54   47.5    37   11.7    29    18.8   831.9    0.00 
 119   10:30   0.66   47.9    39   11.5    31    19.7   831.8    0.00 
 119   10:40   0.40   48.2    36   11.2    30    17.8   831.8    0.00 
 119   10:50   0.58   48.8    36   10.9    12    22.1   831.8    0.00 
 119   11:00   0.78   50.0    35    7.4    16    16.2   831.8    0.00 
 119   11:10   0.51   49.8    34    9.1    26    17.4   831.7    0.00 
 119   11:20   0.34   49.1    33   10.9    20    19.5   831.6    0.00 
 119   11:30   0.44   49.0    32   11.3    17    20.4   831.6    0.00 
 119   11:40   0.57   49.4    33    8.2    29    14.9   831.6    0.00 
 119   11:50   0.32   49.6    31    7.2    28    13.1   831.6    0.00 
 119   12:00   0.65   50.0    31    7.4    11    14.7   831.6    0.00 
 119   12:10   0.49   50.4    31    9.6    19    18.3   831.6    0.00 
 119   12:20   0.20   50.7    30    8.2   336    15.3   831.6    0.00 
 119   12:30   0.36   51.3    29    6.0    25    12.9   831.5    0.00 
 119   12:40   0.86   51.6    29    6.5   343    12.4   831.5    0.00 
 119   12:50   0.67   52.7    29   11.7    19    19.3   831.5    0.00 
 119   13:00   1.07   52.8    30    9.1    34    16.1   831.4    0.00 
 119   13:10   1.01   54.3    28   10.5    21    18.6   831.3    0.00 
 119   13:20   1.11   54.4    27    8.3    11    17.6   831.3    0.00 
 119   13:30   0.98   54.8    27    7.7    29    18.6   831.2    0.00 
 119   13:40   0.81   53.7    26    8.9     1    17.4   831.3    0.00 
 119   13:50   0.49   53.1    27    6.8    35    20.6   831.2    0.00 
 119   14:00   0.41   52.2    29    7.7    46    15.4   831.1    0.00 
 119   14:10   0.91   54.2    27    8.3    36    15.3   831.1    0.00 
 119   14:20   0.70   54.0    25    5.6    18    13.1   831.0    0.00 
 119   14:30   0.78   54.1    26    5.8    44    12.8   830.9    0.00 
 119   14:40   0.74   54.2    27    8.0    50    16.6   830.8    0.00 
 119   14:50   0.73   54.1    28    9.7    47    15.6   830.7    0.00 
 119   15:00   0.70   54.1    26    6.5    79    13.9   830.6    0.00 
 119   15:10   0.67   54.7    25    6.8   360    15.9   830.6    0.00 
 119   15:20   0.64   54.8    24    6.8   340    14.0   830.6    0.00 
 119   15:30   0.60   55.0    25    6.1    10    13.7   830.5    0.00 
 119   15:40   0.58   55.2    25    7.8    25    13.7   830.6    0.00 
 119   15:50   0.54   54.9    25    7.1    21    13.3   830.6    0.00 
 119   16:00   0.50   54.6    26   10.9    11    16.4   830.5    0.00 
 119   16:10   0.45   54.2    26    7.2    20    14.3   830.5    0.00 

Return to North Spring Valley graphs page.


Western Regional Climate Center,wrcc@dri.edu